createdAt,value
2017-04-26T00:09:03.520Z,0
2017-04-26T00:19:03.487Z,0
2017-04-26T00:29:03.573Z,0
2017-04-26T00:39:03.470Z,0
2017-04-26T00:49:03.456Z,0
2017-04-26T00:59:03.453Z,0
2017-04-26T01:09:03.453Z,0
2017-04-26T01:19:03.470Z,0
2017-04-26T01:29:03.446Z,0
2017-04-26T01:39:03.579Z,0
2017-04-26T01:49:03.529Z,0
2017-04-26T01:59:03.454Z,0
2017-04-26T02:09:03.437Z,0
2017-04-26T02:19:03.440Z,0
2017-04-26T02:29:03.510Z,0
2017-04-26T02:39:03.700Z,0
2017-04-26T02:49:03.539Z,0
2017-04-26T02:59:03.460Z,0
2017-04-26T03:09:03.459Z,0
2017-04-26T03:19:03.421Z,0
2017-04-26T03:29:03.409Z,0
2017-04-26T03:39:03.548Z,0
2017-04-26T03:49:03.494Z,0
2017-04-26T03:59:03.438Z,0
2017-04-26T04:09:03.531Z,5
2017-04-26T04:19:03.398Z,15
2017-04-26T04:29:03.443Z,25
2017-04-26T04:39:03.412Z,40
2017-04-26T04:49:03.446Z,50
2017-04-26T04:59:03.403Z,60
2017-04-26T05:09:03.480Z,85
2017-04-26T05:19:03.460Z,105
2017-04-26T05:29:03.388Z,150
2017-04-26T05:39:03.464Z,125
2017-04-26T05:49:03.429Z,95
2017-04-26T05:59:03.430Z,120
2017-04-26T06:09:03.394Z,155
2017-04-26T06:19:03.407Z,205
2017-04-26T06:29:03.369Z,185
2017-04-26T06:39:03.437Z,255
2017-04-26T06:49:03.464Z,225
2017-04-26T06:59:03.367Z,195
2017-04-26T07:09:03.420Z,230
2017-04-26T07:19:03.381Z,330
2017-04-26T07:29:03.638Z,275
2017-04-26T07:39:03.401Z,430
2017-04-26T07:49:03.372Z,465
2017-04-26T07:59:03.409Z,825
2017-04-26T08:09:03.490Z,405
2017-04-26T08:19:03.448Z,1230
2017-04-26T08:29:03.399Z,1645
2017-04-26T08:39:03.414Z,1280
2017-04-26T08:49:03.446Z,355
2017-04-26T08:59:03.370Z,390
2017-04-26T09:09:03.404Z,305
2017-04-26T09:19:03.458Z,135
2017-04-26T09:29:03.395Z,230
2017-04-26T09:39:03.390Z,285
2017-04-26T09:49:03.436Z,255
2017-04-26T09:59:03.373Z,345
2017-04-26T10:09:03.428Z,295
2017-04-26T10:19:03.375Z,340
2017-04-26T10:29:10.733Z,390
2017-04-26T10:39:03.395Z,480
2017-04-26T10:49:03.454Z,400
2017-04-26T10:59:03.507Z,425
2017-04-26T11:09:03.400Z,380
2017-04-26T11:19:03.417Z,400
2017-04-26T11:29:03.474Z,440
2017-04-26T11:39:03.367Z,430
2017-04-26T11:49:03.550Z,215
2017-04-26T11:59:03.429Z,140
2017-04-26T12:09:03.382Z,230
2017-04-26T12:19:08.811Z,395
2017-04-26T12:29:03.557Z,445
2017-04-26T12:39:03.391Z,275
2017-04-26T12:49:03.414Z,260
2017-04-26T12:59:03.467Z,160
2017-04-26T13:09:03.379Z,180
2017-04-26T13:19:03.462Z,255
2017-04-26T13:29:03.432Z,215
2017-04-26T13:39:03.436Z,265
2017-04-26T13:49:03.478Z,260
2017-04-26T14:09:03.392Z,210
2017-04-26T14:19:03.589Z,185
2017-04-26T14:29:03.465Z,210
2017-04-26T14:39:03.649Z,220
2017-04-26T14:49:03.456Z,245
2017-04-26T14:59:03.414Z,185
2017-04-26T15:09:03.417Z,135
2017-04-26T15:19:03.438Z,125
2017-04-26T15:29:03.526Z,115
2017-04-26T15:39:03.392Z,115
2017-04-26T15:49:03.417Z,115
2017-04-26T15:59:03.405Z,110
2017-04-26T16:09:03.427Z,110
2017-04-26T16:19:03.438Z,110
2017-04-26T16:29:03.555Z,105
2017-04-26T16:39:03.473Z,100
2017-04-26T16:49:03.404Z,75
2017-04-26T16:59:03.423Z,50
2017-04-26T17:09:03.438Z,45
2017-04-26T17:19:03.390Z,30
2017-04-26T17:29:03.404Z,35
2017-04-26T17:39:03.422Z,35
2017-04-26T17:49:03.365Z,35
2017-04-26T17:59:03.605Z,35
2017-04-26T18:09:03.395Z,20
2017-04-26T18:19:03.531Z,15
2017-04-26T18:29:03.396Z,15
2017-04-26T18:39:03.383Z,10
2017-04-26T18:49:03.465Z,0
2017-04-26T18:59:03.378Z,0
2017-04-26T19:09:03.357Z,0
2017-04-26T19:19:03.415Z,0
2017-04-26T19:29:03.374Z,0
2017-04-26T19:39:03.384Z,0
2017-04-26T19:49:03.465Z,0
2017-04-26T19:59:03.384Z,0
2017-04-26T20:09:03.438Z,0
2017-04-26T20:19:03.373Z,0
2017-04-26T20:29:03.397Z,0
2017-04-26T20:39:03.436Z,0
2017-04-26T20:49:03.380Z,0
2017-04-26T20:59:03.387Z,0
2017-04-26T21:09:03.461Z,0
2017-04-26T21:19:03.544Z,0
2017-04-26T21:29:03.471Z,0
2017-04-26T21:39:03.453Z,0
2017-04-26T21:49:03.533Z,0
2017-04-26T21:59:05.022Z,0
2017-04-26T22:09:03.368Z,0
2017-04-26T22:19:03.412Z,0
2017-04-26T22:29:03.347Z,0
2017-04-26T22:39:03.418Z,0
2017-04-26T22:49:03.415Z,0
2017-04-26T22:59:03.395Z,0
2017-04-26T23:09:03.325Z,0
2017-04-26T23:19:03.435Z,0
2017-04-26T23:29:03.298Z,0
2017-04-26T23:39:03.295Z,0
2017-04-26T23:49:03.408Z,0
2017-04-26T23:59:03.345Z,0
